Time;durP1;ratioP1;P1;durP2;ratioP2;P2;SDS_P1;SDS_P2;PMS_P1;PMS_P2;Temp;Humidity;BMP_temperature;BMP_pressure;BME280_temperature;BME280_humidity;BME280_pressure;Samples;Min_cycle;Max_cycle;Signal;HPM_P1;HPM_P2
2022/04/02 00:00:04;;;;;;;;;;;;;;;;;;4513403;28;46262;-73
2022/04/02 00:02:39;;;;;;;;;;;;;;;;;;4511227;28;22142;-73
2022/04/02 00:05:06;;;;;;;;;;;;;;;;;;4528999;28;67503;-72
2022/04/02 00:07:33;;;;;;;;;;;;;;;;;;4519343;28;27616;-73
2022/04/02 00:10:01;;;;;;;;;;;;;;;;;;4474962;28;20823;-72
2022/04/02 00:12:29;;;;;;;;;;;;;;;;;;4612757;28;253065;-72
2022/04/02 00:14:56;;;;;;;;;;;;;;;;;;4650828;28;125675;-72
2022/04/02 00:17:24;;;;;;;;;;;;;;;;;;4650427;28;31075;-72
2022/04/02 00:19:54;;;;;;;;;;;;;;;;;;4676573;28;29082;-73
2022/04/02 00:22:21;;;;;;;;;;;;;;;;;;4679859;28;29066;-73
2022/04/02 00:24:49;;;;;;;;;;;;;;;;;;4686822;28;30144;-71
2022/04/02 00:27:17;;;;;;;;;;;;;;;;;;4648340;28;30085;-74
2022/04/02 00:29:44;;;;;;;;;;;;;;;;;;4675119;28;29073;-72
2022/04/02 00:32:13;;;;;;;;;;;;;;;;;;4676637;28;28033;-73
2022/04/02 00:34:41;;;;;;;;;;;;;;;;;;4611176;28;40662;-73
2022/04/02 00:37:08;;;;;;;;;;;;;;;;;;4553288;28;28060;-73
2022/04/02 00:39:35;;;;;;;;;;;;;;;;;;4599976;28;28061;-72
2022/04/02 00:42:03;;;;;;;;;;;;;;;;;;4602005;28;28073;-73
2022/04/02 00:44:32;;;;;;;;;;;;;;;;;;4655103;28;30059;-73
2022/04/02 00:46:59;;;;;;;;;;;;;;;;;;4654656;28;25539;-72
2022/04/02 00:49:28;;;;;;;;;;;;;;;;;;4654725;28;33036;-72
2022/04/02 00:51:55;;;;;;;;;;;;;;;;;;4658187;28;27077;-73
2022/04/02 00:54:23;;;;;;;;;;;;;;;;;;4412192;28;165884;-72
2022/04/02 00:56:50;;;;;;;;;;;;;;;;;;4682413;28;25083;-73
2022/04/02 00:59:18;;;;;;;;;;;;;;;;;;4680591;28;25069;-72
2022/04/02 01:01:45;;;;;;;;;;;;;;;;;;4662809;28;25079;-73
2022/04/02 01:04:14;;;;;;;;;;;;;;;;;;4660128;28;31056;-72
2022/04/02 01:06:43;;;;;;;;;;;;;;;;;;4664944;28;31092;-72
2022/04/02 01:09:17;;;;;;;;;;;;;;;;;;4664080;28;28061;-73
2022/04/02 01:11:51;;;;;;;;;;;;;;;;;;4658674;28;27102;-72
2022/04/02 01:14:19;;;;;;;;;;;;;;;;;;4663937;28;31080;-73
2022/04/02 01:16:50;;;;;;;;;;;;;;;;;;4660429;28;30153;-71
2022/04/02 01:19:21;;;;;;;;;;;;;;;;;;4666015;28;137214;-72
2022/04/02 01:21:56;;;;;;;;;;;;;;;;;;4662154;28;28139;-72
2022/04/02 01:24:46;;;;;;;;;;;;;;;;;;4653552;28;29108;-72
2022/04/02 01:27:14;;;;;;;;;;;;;;;;;;4639903;28;25141;-72
2022/04/02 01:29:45;;;;;;;;;;;;;;;;;;4569001;28;27069;-72
2022/04/02 01:32:13;;;;;;;;;;;;;;;;;;4642399;28;28547;-73
2022/04/02 01:34:44;;;;;;;;;;;;;;;;;;4631202;28;27008;-72
2022/04/02 01:37:16;;;;;;;;;;;;;;;;;;4666214;28;27067;-73
2022/04/02 01:39:52;;;;;;;;;;;;;;;;;;4670799;28;29083;-73
2022/04/02 01:42:24;;;;;;;;;;;;;;;;;;4675374;28;30119;-72
2022/04/02 01:45:07;;;;;;;;;;;;;;;;;;4679269;28;30130;-73
2022/04/02 01:47:41;;;;;;;;;;;;;;;;;;4646918;28;20725;-71
2022/04/02 01:50:08;;;;;;;;;;;;;;;;;;4670379;28;33102;-72
2022/04/02 01:52:39;;;;;;;;;;;;;;;;;;4661235;28;25084;-72
2022/04/02 01:55:12;;;;;;;;;;;;;;;;;;4673604;28;30141;-72
2022/04/02 01:57:43;;;;;;;;;;;;;;;;;;4668925;28;31107;-71
2022/04/02 02:00:15;;;;;;;;;;;;;;;;;;4680350;28;29065;-72
2022/04/02 02:02:47;;;;;;;;;;;;;;;;;;4677839;28;82142;-71
2022/04/02 02:05:14;;;;;;;;;;;;;;;;;;4671674;28;32063;-71
2022/04/02 02:07:42;;;;;;;;;;;;;;;;;;4689337;28;30048;-72
2022/04/02 02:10:11;;;;;;;;;;;;;;;;;;4685915;28;30139;-72
2022/04/02 02:13:11;;;;;;;;;;;;;;;;;;4674479;28;32130;-73
2022/04/02 02:15:44;;;;;;;;;;;;;;;;;;4688203;28;27051;-72
2022/04/02 02:18:11;;;;;;;;;;;;;;;;;;4688298;28;27067;-74
2022/04/02 02:20:39;;;;;;;;;;;;;;;;;;4653037;28;635615;-71
2022/04/02 02:23:07;;;;;;;;;;;;;;;;;;4594354;28;246280;-72
2022/04/02 02:25:35;;;;;;;;;;;;;;;;;;4688364;28;26066;-73
2022/04/02 02:28:04;;;;;;;;;;;;;;;;;;4689241;28;28050;-72
2022/04/02 02:30:31;;;;;;;;;;;;;;;;;;4688530;28;30099;-73
2022/04/02 02:35:50;;;;;;;;;;;;;;;;;;4690115;28;29114;-72
2022/04/02 02:38:27;;;;;;;;;;;;;;;;;;4688816;28;29134;-73
2022/04/02 02:41:10;;;;;;;;;;;;;;;;;;4689566;28;28063;-72
2022/04/02 02:43:40;;;;;;;;;;;;;;;;;;4687118;28;32109;-72
2022/04/02 02:46:17;;;;;;;;;;;;;;;;;;4673425;28;28081;-73
2022/04/02 02:48:48;;;;;;;;;;;;;;;;;;4689337;28;25083;-73
2022/04/02 02:51:19;;;;;;;;;;;;;;;;;;4685389;28;28102;-73
2022/04/02 02:53:47;;;;;;;;;;;;;;;;;;4687759;28;30108;-73
2022/04/02 02:56:14;;;;;;;;;;;;;;;;;;4686327;28;35111;-72
2022/04/02 02:58:43;;;;;;;;;;;;;;;;;;4653117;28;26134;-73
2022/04/02 03:01:11;;;;;;;;;;;;;;;;;;4677070;28;30144;-73
2022/04/02 03:03:38;;;;;;;;;;;;;;;;;;4677583;28;27149;-72
2022/04/02 03:06:09;;;;;;;;;;;;;;;;;;4671488;28;28069;-72
2022/04/02 03:08:41;;;;;;;;;;;;;;;;;;4685502;28;30076;-72
2022/04/02 03:11:08;;;;;;;;;;;;;;;;;;4683456;28;26059;-72
2022/04/02 03:13:38;;;;;;;;;;;;;;;;;;4678000;28;25072;-72
2022/04/02 03:16:10;;;;;;;;;;;;;;;;;;4642433;28;32115;-73
2022/04/02 03:18:44;;;;;;;;;;;;;;;;;;4652898;28;31063;-72
2022/04/02 03:21:16;;;;;;;;;;;;;;;;;;4668646;28;30067;-73
2022/04/02 03:23:44;;;;;;;;;;;;;;;;;;4666946;28;26064;-73
2022/04/02 03:26:15;;;;;;;;;;;;;;;;;;4669385;28;28098;-74
2022/04/02 03:28:43;;;;;;;;;;;;;;;;;;4645794;28;28075;-72
2022/04/02 03:31:11;;;;;;;;;;;;;;;;;;4655733;28;26067;-72
2022/04/02 03:33:42;;;;;;;;;;;;;;;;;;4668826;28;25072;-73
2022/04/02 03:36:11;;;;;;;;;;;;;;;;;;4667444;28;32102;-72
2022/04/02 03:38:41;;;;;;;;;;;;;;;;;;4662357;28;30094;-73
2022/04/02 03:41:16;;;;;;;;;;;;;;;;;;4663018;28;31062;-73
2022/04/02 03:43:50;;;;;;;;;;;;;;;;;;4661528;28;26066;-72
2022/04/02 03:49:08;;;;;;;;;;;;;;;;;;4684264;28;27153;-72
2022/04/02 03:51:36;;;;;;;;;;;;;;;;;;4670526;28;25113;-72
2022/04/02 03:54:09;;;;;;;;;;;;;;;;;;4666857;28;25140;-72
2022/04/02 03:56:41;;;;;;;;;;;;;;;;;;4664542;28;27162;-73
2022/04/02 03:59:12;;;;;;;;;;;;;;;;;;4647816;28;25079;-73
2022/04/02 04:01:44;;;;;;;;;;;;;;;;;;4677408;28;26075;-73
2022/04/02 04:04:13;;;;;;;;;;;;;;;;;;4661367;28;32106;-73
2022/04/02 04:06:41;;;;;;;;;;;;;;;;;;4676708;28;29066;-72
2022/04/02 04:09:09;;;;;;;;;;;;;;;;;;4645327;28;28118;-72
2022/04/02 04:11:38;;;;;;;;;;;;;;;;;;4661297;28;32060;-72
2022/04/02 04:14:05;;;;;;;;;;;;;;;;;;4649506;28;27116;-73
2022/04/02 04:16:33;;;;;;;;;;;;;;;;;;4666857;28;26073;-72
2022/04/02 04:19:01;;;;;;;;;;;;;;;;;;4667496;28;28085;-73
2022/04/02 04:21:28;;;;;;;;;;;;;;;;;;4666192;28;33080;-74
2022/04/02 04:23:56;;;;;;;;;;;;;;;;;;4666078;28;28076;-72
2022/04/02 04:26:24;;;;;;;;;;;;;;;;;;4667024;28;25075;-73
2022/04/02 04:28:52;;;;;;;;;;;;;;;;;;4666965;28;25090;-73
2022/04/02 04:31:20;;;;;;;;;;;;;;;;;;4669590;28;28121;-73
2022/04/02 04:33:47;;;;;;;;;;;;;;;;;;4621514;28;25068;-72
2022/04/02 04:36:15;;;;;;;;;;;;;;;;;;4667453;28;29133;-73
2022/04/02 04:38:44;;;;;;;;;;;;;;;;;;4666337;28;25105;-72
2022/04/02 04:41:19;;;;;;;;;;;;;;;;;;4653946;28;30110;-72
2022/04/02 04:43:51;;;;;;;;;;;;;;;;;;4668873;28;32119;-72
2022/04/02 04:46:25;;;;;;;;;;;;;;;;;;4667564;28;28933;-72
2022/04/02 04:48:55;;;;;;;;;;;;;;;;;;4639707;28;32092;-73
2022/04/02 04:51:23;;;;;;;;;;;;;;;;;;4666783;28;28037;-73
2022/04/02 04:53:55;;;;;;;;;;;;;;;;;;4667849;28;26052;-73
2022/04/02 04:56:23;;;;;;;;;;;;;;;;;;4665577;28;33111;-74
2022/04/02 04:58:51;;;;;;;;;;;;;;;;;;4665740;28;32081;-73
2022/04/02 05:01:22;;;;;;;;;;;;;;;;;;4637489;28;25092;-72
2022/04/02 05:03:51;;;;;;;;;;;;;;;;;;4604019;28;26107;-73
2022/04/02 05:06:20;;;;;;;;;;;;;;;;;;4404948;28;26126;-72
2022/04/02 05:09:34;;;;;;;;;;;;;;;;;;4545361;27;27102;-74
2022/04/02 05:12:05;;;;;;;;;;;;;;;;;;4520707;28;27123;-73
2022/04/02 05:14:39;;;;;;;;;;;;;;;;;;4518074;28;27058;-74
2022/04/02 05:17:09;;;;;;;;;;;;;;;;;;4614782;28;26076;-73
2022/04/02 05:19:37;;;;;;;;;;;;;;;;;;4713706;28;28106;-72
2022/04/02 05:22:06;;;;;;;;;;;;;;;;;;4714333;28;30126;-72
2022/04/02 05:24:41;;;;;;;;;;;;;;;;;;4712683;28;31059;-72
2022/04/02 05:27:09;;;;;;;;;;;;;;;;;;4715366;28;27141;-71
2022/04/02 05:29:37;;;;;;;;;;;;;;;;;;4709072;28;26149;-71
2022/04/02 05:32:05;;;;;;;;;;;;;;;;;;4709522;28;26082;-72
2022/04/02 05:34:35;;;;;;;;;;;;;;;;;;4696399;28;33042;-71
2022/04/02 05:37:02;;;;;;;;;;;;;;;;;;4695440;28;28139;-70
2022/04/02 05:39:30;;;;;;;;;;;;;;;;;;4694840;28;28133;-70
2022/04/02 05:41:58;;;;;;;;;;;;;;;;;;4700599;28;25070;-72
2022/04/02 05:44:25;;;;;;;;;;;;;;;;;;4703589;28;32147;-72
2022/04/02 05:46:53;;;;;;;;;;;;;;;;;;4692113;28;31077;-74
2022/04/02 05:49:41;;;;;;;;;;;;;;;;;;4687432;28;25099;-72
2022/04/02 05:52:09;;;;;;;;;;;;;;;;;;4678946;28;27071;-74
2022/04/02 05:54:37;;;;;;;;;;;;;;;;;;4673735;28;31062;-72
2022/04/02 05:57:07;;;;;;;;;;;;;;;;;;4660806;28;27060;-72
2022/04/02 05:59:37;;;;;;;;;;;;;;;;;;4667075;28;32096;-72
2022/04/02 06:02:04;;;;;;;;;;;;;;;;;;4673615;28;32130;-72
2022/04/02 06:04:32;;;;;;;;;;;;;;;;;;4674832;28;36103;-73
2022/04/02 06:06:59;;;;;;;;;;;;;;;;;;4677781;28;31076;-73
2022/04/02 06:09:28;;;;;;;;;;;;;;;;;;4669156;28;31134;-72
2022/04/02 06:11:55;;;;;;;;;;;;;;;;;;4671653;28;26126;-72
2022/04/02 06:14:23;;;;;;;;;;;;;;;;;;4672598;28;26072;-72
2022/04/02 06:16:50;;;;;;;;;;;;;;;;;;4677003;28;32149;-73
2022/04/02 06:19:19;;;;;;;;;;;;;;;;;;4667021;28;29062;-72
2022/04/02 06:21:47;;;;;;;;;;;;;;;;;;4655410;28;26107;-75
2022/04/02 06:24:14;;;;;;;;;;;;;;;;;;4657345;28;27711;-72
2022/04/02 06:26:42;;;;;;;;;;;;;;;;;;4659749;28;28045;-73
2022/04/02 06:29:12;;;;;;;;;;;;;;;;;;4655555;28;31110;-72
2022/04/02 06:31:39;;;;;;;;;;;;;;;;;;4659568;28;28065;-72
2022/04/02 06:34:07;;;;;;;;;;;;;;;;;;4663165;28;28061;-72
2022/04/02 06:36:34;;;;;;;;;;;;;;;;;;4663353;28;26064;-72
2022/04/02 06:39:01;;;;;;;;;;;;;;;;;;4668854;28;32095;-72
2022/04/02 06:41:29;;;;;;;;;;;;;;;;;;4664862;28;26063;-71
2022/04/02 06:43:57;;;;;;;;;;;;;;;;;;4674663;28;28069;-72
2022/04/02 06:46:25;;;;;;;;;;;;;;;;;;4670306;28;32080;-72
2022/04/02 06:48:53;;;;;;;;;;;;;;;;;;4663826;28;29124;-72
2022/04/02 06:51:21;;;;;;;;;;;;;;;;;;4665902;28;27987;-72
2022/04/02 06:53:49;;;;;;;;;;;;;;;;;;4665521;28;27508;-72
2022/04/02 06:56:18;;;;;;;;;;;;;;;;;;4667232;28;26065;-74
2022/04/02 06:58:46;;;;;;;;;;;;;;;;;;4666519;28;29077;-72
2022/04/02 07:01:15;;;;;;;;;;;;;;;;;;4656959;28;25069;-73
2022/04/02 07:03:42;;;;;;;;;;;;;;;;;;4680940;28;32154;-72
2022/04/02 07:06:10;;;;;;;;;;;;;;;;;;4680053;22;27074;-71
2022/04/02 07:08:37;;;;;;;;;;;;;;;;;;4645782;28;25132;-72
2022/04/02 07:11:06;;;;;;;;;;;;;;;;;;4640080;28;26066;-72
2022/04/02 07:13:33;;;;;;;;;;;;;;;;;;4635735;28;32086;-72
2022/04/02 07:16:03;;;;;;;;;;;;;;;;;;4644510;28;26087;-72
2022/04/02 07:18:31;;;;;;;;;;;;;;;;;;4635237;28;31062;-72
2022/04/02 07:21:00;;;;;;;;;;;;;;;;;;4639353;28;31062;-72
2022/04/02 07:23:27;;;;;;;;;;;;;;;;;;4636359;28;31108;-74
2022/04/02 07:25:56;;;;;;;;;;;;;;;;;;4635542;28;31060;-72
2022/04/02 07:28:27;;;;;;;;;;;;;;;;;;4635352;28;27850;-74
2022/04/02 07:30:55;;;;;;;;;;;;;;;;;;4626675;28;30067;-72
2022/04/02 07:33:25;;;;;;;;;;;;;;;;;;4628090;28;27091;-74
2022/04/02 07:35:53;;;;;;;;;;;;;;;;;;4634159;28;28021;-71
2022/04/02 07:38:21;;;;;;;;;;;;;;;;;;4632686;28;34105;-74
2022/04/02 07:40:53;;;;;;;;;;;;;;;;;;4619921;28;31133;-73
2022/04/02 07:43:21;;;;;;;;;;;;;;;;;;4617503;28;32952;-85
2022/04/02 07:45:50;;;;;;;;;;;;;;;;;;4630362;28;32148;-70
2022/04/02 07:48:19;;;;;;;;;;;;;;;;;;4642812;28;32108;-71
2022/04/02 07:50:46;;;;;;;;;;;;;;;;;;4649064;28;28039;-71
2022/04/02 07:53:14;;;;;;;;;;;;;;;;;;4626634;28;32061;-79
2022/04/02 07:55:44;;;;;;;;;;;;;;;;;;4629206;28;31134;-71
2022/04/02 07:58:11;;;;;;;;;;;;;;;;;;4622239;28;29130;-70
2022/04/02 08:00:39;;;;;;;;;;;;;;;;;;4623091;28;30086;-79
2022/04/02 08:03:07;;;;;;;;;;;;;;;;;;4625156;28;30122;-71
2022/04/02 08:05:36;;;;;;;;;;;;;;;;;;4631216;28;26093;-70
2022/04/02 08:08:04;;;;;;;;;;;;;;;;;;4618245;28;27105;-78
2022/04/02 08:10:37;;;;;;;;;;;;;;;;;;4619875;28;27059;-76
2022/04/02 08:13:08;;;;;;;;;;;;;;;;;;4628563;28;31086;-71
2022/04/02 08:15:38;;;;;;;;;;;;;;;;;;4617239;28;27122;-70
2022/04/02 08:18:10;;;;;;;;;;;;;;;;;;4614487;28;32881;-70
2022/04/02 08:20:37;;;;;;;;;;;;;;;;;;4639189;28;31069;-75
2022/04/02 08:23:04;;;;;;;;;;;;;;;;;;4628984;28;25065;-75
2022/04/02 08:25:33;;;;;;;;;;;;;;;;;;4620017;28;29089;-70
2022/04/02 08:28:01;;;;;;;;;;;;;;;;;;4613005;28;29060;-77
2022/04/02 08:30:29;;;;;;;;;;;;;;;;;;4609745;28;33148;-71
2022/04/02 08:32:57;;;;;;;;;;;;;;;;;;4615211;28;31131;-71
2022/04/02 08:35:25;;;;;;;;;;;;;;;;;;4614182;28;29137;-78
2022/04/02 08:37:53;;;;;;;;;;;;;;;;;;4615102;28;28056;-76
2022/04/02 08:40:21;;;;;;;;;;;;;;;;;;4612035;28;33091;-76
2022/04/02 08:42:49;;;;;;;;;;;;;;;;;;4610119;28;29081;-76
2022/04/02 08:45:16;;;;;;;;;;;;;;;;;;4625567;28;27079;-72
2022/04/02 08:47:45;;;;;;;;;;;;;;;;;;4620224;28;33103;-71
2022/04/02 08:50:12;;;;;;;;;;;;;;;;;;4621825;28;28110;-71
2022/04/02 08:52:40;;;;;;;;;;;;;;;;;;4618921;28;26067;-75
2022/04/02 08:55:08;;;;;;;;;;;;;;;;;;4630769;28;31054;-72
2022/04/02 08:57:36;;;;;;;;;;;;;;;;;;4630806;28;31067;-71
2022/04/02 09:00:04;;;;;;;;;;;;;;;;;;4621239;28;27075;-71
2022/04/02 09:02:32;;;;;;;;;;;;;;;;;;4612396;28;31076;-78
2022/04/02 09:05:03;;;;;;;;;;;;;;;;;;4632558;28;29078;-78
2022/04/02 09:07:30;;;;;;;;;;;;;;;;;;4624541;28;30125;-77
2022/04/02 09:09:58;;;;;;;;;;;;;;;;;;4615768;28;32119;-70
2022/04/02 09:12:26;;;;;;;;;;;;;;;;;;4614328;28;27965;-71
2022/04/02 09:14:56;;;;;;;;;;;;;;;;;;4614391;28;26082;-79
2022/04/02 09:17:28;;;;;;;;;;;;;;;;;;4613248;28;26057;-71
2022/04/02 09:19:55;;;;;;;;;;;;;;;;;;4587474;28;25087;-75
2022/04/02 09:22:22;;;;;;;;;;;;;;;;;;4604114;28;33064;-78
2022/04/02 09:24:50;;;;;;;;;;;;;;;;;;4607889;28;34138;-70
2022/04/02 09:27:21;;;;;;;;;;;;;;;;;;4616374;28;28047;-78
2022/04/02 09:29:49;;;;;;;;;;;;;;;;;;4613249;28;32078;-69
2022/04/02 09:32:19;;;;;;;;;;;;;;;;;;4606792;28;29074;-72
2022/04/02 09:34:46;;;;;;;;;;;;;;;;;;4621395;28;31060;-71
2022/04/02 09:37:20;;;;;;;;;;;;;;;;;;4616449;28;37081;-70
2022/04/02 09:39:47;;;;;;;;;;;;;;;;;;4609314;28;32146;-71
2022/04/02 09:42:16;;;;;;;;;;;;;;;;;;4605812;28;26156;-77
2022/04/02 09:44:43;;;;;;;;;;;;;;;;;;4620049;28;30090;-75
2022/04/02 09:47:11;;;;;;;;;;;;;;;;;;4627975;28;26096;-79
2022/04/02 09:49:42;;;;;;;;;;;;;;;;;;4628524;28;29068;-75
2022/04/02 09:52:09;;;;;;;;;;;;;;;;;;4624985;28;32067;-71
2022/04/02 09:54:37;;;;;;;;;;;;;;;;;;4621627;28;28148;-71
2022/04/02 09:57:05;;;;;;;;;;;;;;;;;;4624618;28;25058;-75
2022/04/02 09:59:32;;;;;;;;;;;;;;;;;;4619531;28;26095;-71
2022/04/02 10:01:59;;;;;;;;;;;;;;;;;;4630090;28;28047;-71
2022/04/02 10:04:27;;;;;;;;;;;;;;;;;;4629860;28;26065;-71
2022/04/02 10:06:55;;;;;;;;;;;;;;;;;;4623506;28;26086;-77
2022/04/02 10:09:22;;;;;;;;;;;;;;;;;;4627676;28;29083;-71
2022/04/02 10:11:52;;;;;;;;;;;;;;;;;;4625502;28;33052;-71
2022/04/02 10:14:21;;;;;;;;;;;;;;;;;;4610420;28;28080;-71
2022/04/02 10:16:49;;;;;;;;;;;;;;;;;;4613875;28;27080;-72
2022/04/02 10:19:17;;;;;;;;;;;;;;;;;;4612465;28;26094;-75
2022/04/02 10:21:45;;;;;;;;;;;;;;;;;;4616817;28;25067;-74
2022/04/02 10:24:12;;;;;;;;;;;;;;;;;;4614025;28;28089;-75
2022/04/02 10:26:47;;;;;;;;;;;;;;;;;;4618136;28;26087;-74
2022/04/02 10:29:15;;;;;;;;;;;;;;;;;;4622680;28;28119;-72
2022/04/02 10:31:47;;;;;;;;;;;;;;;;;;4623138;28;28106;-72
2022/04/02 10:34:15;;;;;;;;;;;;;;;;;;4628886;28;26099;-71
2022/04/02 10:36:42;;;;;;;;;;;;;;;;;;4623260;28;28149;-72
2022/04/02 10:39:10;;;;;;;;;;;;;;;;;;4615201;28;30135;-76
2022/04/02 10:41:39;;;;;;;;;;;;;;;;;;4631334;28;33088;-76
2022/04/02 10:44:07;;;;;;;;;;;;;;;;;;4638128;28;30065;-72
2022/04/02 10:46:35;;;;;;;;;;;;;;;;;;4634627;28;31079;-72
2022/04/02 10:49:07;;;;;;;;;;;;;;;;;;4637556;28;29118;-78
2022/04/02 10:51:39;;;;;;;;;;;;;;;;;;4636546;28;25073;-72
2022/04/02 10:54:07;;;;;;;;;;;;;;;;;;4639754;28;27068;-72
2022/04/02 10:56:35;;;;;;;;;;;;;;;;;;4639999;28;25075;-71
2022/04/02 10:59:03;;;;;;;;;;;;;;;;;;4633896;28;29070;-72
2022/04/02 11:01:31;;;;;;;;;;;;;;;;;;4638693;28;30059;-72
2022/04/02 11:04:02;;;;;;;;;;;;;;;;;;4640727;28;31108;-72
2022/04/02 11:06:30;;;;;;;;;;;;;;;;;;4637749;28;29074;-72
2022/04/02 11:08:58;;;;;;;;;;;;;;;;;;4648791;28;25086;-71
2022/04/02 11:11:27;;;;;;;;;;;;;;;;;;4647768;28;34082;-72
2022/04/02 11:13:55;;;;;;;;;;;;;;;;;;4642124;28;29066;-80
2022/04/02 11:16:24;;;;;;;;;;;;;;;;;;4637298;28;27153;-81
2022/04/02 11:19:54;;;;;;;;;;;;;;;;;;4629249;28;32102;-80
2022/04/02 11:21:40;;;;;;;;;;;;;;;;;;4635470;28;32181;-80
2022/04/02 11:24:08;;;;;;;;;;;;;;;;;;4631368;28;26056;-72
2022/04/02 11:26:36;;;;;;;;;;;;;;;;;;4627031;28;27077;-77
2022/04/02 11:29:04;;;;;;;;;;;;;;;;;;4635526;28;31935;-77
2022/04/02 11:34:28;;;;;;;;;;;;;;;;;;4620499;28;29099;-71
2022/04/02 11:36:57;;;;;;;;;;;;;;;;;;4618994;28;26069;-72
2022/04/02 11:39:25;;;;;;;;;;;;;;;;;;4627402;28;29087;-79
2022/04/02 11:41:52;;;;;;;;;;;;;;;;;;4613279;28;26088;-80
2022/04/02 11:44:20;;;;;;;;;;;;;;;;;;4622920;28;29056;-76
2022/04/02 11:46:47;;;;;;;;;;;;;;;;;;4597293;28;31057;-76
2022/04/02 11:49:16;;;;;;;;;;;;;;;;;;4599991;28;32140;-80
2022/04/02 11:51:45;;;;;;;;;;;;;;;;;;4600611;28;29083;-72
2022/04/02 11:54:13;;;;;;;;;;;;;;;;;;4605739;28;26996;-72
2022/04/02 11:56:44;;;;;;;;;;;;;;;;;;4612565;28;25064;-71
2022/04/02 11:59:12;;;;;;;;;;;;;;;;;;4625479;28;25056;-71
2022/04/02 12:01:40;;;;;;;;;;;;;;;;;;4621209;28;27150;-71
2022/04/02 12:04:13;;;;;;;;;;;;;;;;;;4633893;28;27136;-77
2022/04/02 12:06:42;;;;;;;;;;;;;;;;;;4618852;28;33130;-71
2022/04/02 12:09:10;;;;;;;;;;;;;;;;;;4616636;28;46095;-71
2022/04/02 12:11:38;;;;;;;;;;;;;;;;;;4626872;28;27060;-71
2022/04/02 12:14:08;;;;;;;;;;;;;;;;;;4630500;28;28064;-79
2022/04/02 12:16:38;;;;;;;;;;;;;;;;;;4623578;28;33070;-72
2022/04/02 12:19:06;;;;;;;;;;;;;;;;;;4608629;28;33164;-77
2022/04/02 12:21:34;;;;;;;;;;;;;;;;;;4604904;28;33082;-77
2022/04/02 12:24:05;;;;;;;;;;;;;;;;;;4608849;28;32145;-72
2022/04/02 12:26:34;;;;;;;;;;;;;;;;;;4600101;28;26148;-76
2022/04/02 12:29:01;;;;;;;;;;;;;;;;;;4608574;28;27877;-72
2022/04/02 12:31:30;;;;;;;;;;;;;;;;;;4611575;28;29124;-71
2022/04/02 12:33:59;;;;;;;;;;;;;;;;;;4609704;28;30121;-77
2022/04/02 12:36:27;;;;;;;;;;;;;;;;;;4610739;28;33082;-76
2022/04/02 12:38:54;;;;;;;;;;;;;;;;;;4607684;28;25058;-77
2022/04/02 12:41:22;;;;;;;;;;;;;;;;;;4600013;28;30085;-72
2022/04/02 12:43:51;;;;;;;;;;;;;;;;;;4610381;28;27066;-72
2022/04/02 12:46:21;;;;;;;;;;;;;;;;;;4620083;28;31124;-75
2022/04/02 12:48:49;;;;;;;;;;;;;;;;;;4613741;28;29083;-77
2022/04/02 12:51:18;;;;;;;;;;;;;;;;;;4624225;28;32023;-72
2022/04/02 12:53:46;;;;;;;;;;;;;;;;;;4634470;28;27105;-73
2022/04/02 12:56:19;;;;;;;;;;;;;;;;;;4636725;28;27073;-76
2022/04/02 12:58:47;;;;;;;;;;;;;;;;;;4617342;28;33125;-73
2022/04/02 13:01:18;;;;;;;;;;;;;;;;;;4628547;28;27085;-73
2022/04/02 13:03:46;;;;;;;;;;;;;;;;;;4626510;28;27115;-75
2022/04/02 13:06:14;;;;;;;;;;;;;;;;;;4632572;28;27233;-72
2022/04/02 13:08:42;;;;;;;;;;;;;;;;;;4619330;28;28083;-77
2022/04/02 13:11:09;;;;;;;;;;;;;;;;;;4627534;28;29065;-72
2022/04/02 13:13:38;;;;;;;;;;;;;;;;;;4619030;28;32044;-74
2022/04/02 13:16:06;;;;;;;;;;;;;;;;;;4642036;28;32132;-74
2022/04/02 13:21:20;;;;;;;;;;;;;;;;;;4617811;28;27136;-72
2022/04/02 13:23:50;;;;;;;;;;;;;;;;;;4614051;28;27138;-75
2022/04/02 13:26:17;;;;;;;;;;;;;;;;;;4607752;28;31114;-71
2022/04/02 13:28:45;;;;;;;;;;;;;;;;;;4604030;28;29140;-74
2022/04/02 13:31:12;;;;;;;;;;;;;;;;;;4606901;28;25222;-72
2022/04/02 13:33:40;;;;;;;;;;;;;;;;;;4603042;28;28058;-75
2022/04/02 13:36:15;;;;;;;;;;;;;;;;;;4621788;28;26085;-71
2022/04/02 13:38:43;;;;;;;;;;;;;;;;;;4621935;28;30147;-75
2022/04/02 13:41:14;;;;;;;;;;;;;;;;;;4616512;28;27148;-75
2022/04/02 13:43:45;;;;;;;;;;;;;;;;;;4620818;28;27125;-73
2022/04/02 13:46:13;;;;;;;;;;;;;;;;;;4629827;28;33917;-72
2022/04/02 13:48:43;;;;;;;;;;;;;;;;;;4626141;28;32081;-72
2022/04/02 13:51:10;;;;;;;;;;;;;;;;;;4614096;28;27082;-74
2022/04/02 13:53:38;;;;;;;;;;;;;;;;;;4607191;28;31061;-71
2022/04/02 13:56:08;;;;;;;;;;;;;;;;;;4601571;28;31994;-73
2022/04/02 13:58:38;;;;;;;;;;;;;;;;;;4598857;28;26055;-75
2022/04/02 14:01:08;;;;;;;;;;;;;;;;;;4598465;28;29062;-70
2022/04/02 14:03:36;;;;;;;;;;;;;;;;;;4613383;28;26066;-74
2022/04/02 14:06:03;;;;;;;;;;;;;;;;;;4612249;28;33153;-72
2022/04/02 14:08:31;;;;;;;;;;;;;;;;;;4610392;28;26081;-70
2022/04/02 14:10:58;;;;;;;;;;;;;;;;;;4609619;28;26060;-74
2022/04/02 14:13:29;;;;;;;;;;;;;;;;;;4612286;28;28062;-74
2022/04/02 14:15:56;;;;;;;;;;;;;;;;;;4614190;28;44136;-74
2022/04/02 14:18:26;;;;;;;;;;;;;;;;;;4616342;28;29084;-71
2022/04/02 14:20:54;;;;;;;;;;;;;;;;;;4614676;28;33081;-74
2022/04/02 14:23:21;;;;;;;;;;;;;;;;;;4620474;28;27149;-71
2022/04/02 14:25:49;;;;;;;;;;;;;;;;;;4638509;28;26059;-71
2022/04/02 14:28:16;;;;;;;;;;;;;;;;;;4637780;28;30066;-71
2022/04/02 14:30:44;;;;;;;;;;;;;;;;;;4631732;28;26146;-70
2022/04/02 14:33:16;;;;;;;;;;;;;;;;;;4650611;28;33093;-70
2022/04/02 14:35:44;;;;;;;;;;;;;;;;;;4623750;28;32075;-70
2022/04/02 14:38:17;;;;;;;;;;;;;;;;;;4620457;28;30150;-73
2022/04/02 14:40:45;;;;;;;;;;;;;;;;;;4616723;28;27085;-73
2022/04/02 14:43:12;;;;;;;;;;;;;;;;;;4626627;28;27161;-74
2022/04/02 14:45:40;;;;;;;;;;;;;;;;;;4610823;28;31121;-69
2022/04/02 14:48:08;;;;;;;;;;;;;;;;;;4610577;28;28048;-69
2022/04/02 14:50:36;;;;;;;;;;;;;;;;;;4638518;28;26076;-70
2022/04/02 14:53:03;;;;;;;;;;;;;;;;;;4625315;28;33128;-71
2022/04/02 14:55:31;;;;;;;;;;;;;;;;;;4636375;28;25102;-74
2022/04/02 14:57:58;;;;;;;;;;;;;;;;;;4599937;28;25532;-69
2022/04/02 15:00:26;;;;;;;;;;;;;;;;;;4623027;28;27064;-70
2022/04/02 15:02:54;;;;;;;;;;;;;;;;;;4630829;28;25074;-71
2022/04/02 15:05:22;;;;;;;;;;;;;;;;;;4622380;28;31080;-74
2022/04/02 15:07:49;;;;;;;;;;;;;;;;;;4629701;28;31090;-71
2022/04/02 15:10:18;;;;;;;;;;;;;;;;;;4628185;28;33080;-73
2022/04/02 15:12:46;;;;;;;;;;;;;;;;;;4631481;28;44120;-71
2022/04/02 15:15:17;;;;;;;;;;;;;;;;;;4622194;28;30108;-71
2022/04/02 15:17:45;;;;;;;;;;;;;;;;;;4617163;28;33151;-71
2022/04/02 15:20:12;;;;;;;;;;;;;;;;;;4610181;28;26066;-74
2022/04/02 15:22:39;;;;;;;;;;;;;;;;;;4618274;28;33120;-74
2022/04/02 15:25:11;;;;;;;;;;;;;;;;;;4613919;28;28092;-74
2022/04/02 15:28:00;;;;;;;;;;;;;;;;;;4618625;28;34137;-71
2022/04/02 15:30:27;;;;;;;;;;;;;;;;;;4615245;28;34133;-75
2022/04/02 15:32:58;;;;;;;;;;;;;;;;;;4612688;28;27057;-71
2022/04/02 15:35:26;;;;;;;;;;;;;;;;;;4612076;28;32050;-71
2022/04/02 15:38:03;;;;;;;;;;;;;;;;;;4614512;28;26077;-74
2022/04/02 15:40:30;;;;;;;;;;;;;;;;;;4618908;28;33069;-74
2022/04/02 15:43:02;;;;;;;;;;;;;;;;;;4619147;28;25075;-74
2022/04/02 15:45:30;;;;;;;;;;;;;;;;;;4617996;28;29122;-71
2022/04/02 15:47:57;;;;;;;;;;;;;;;;;;4618778;28;30077;-71
2022/04/02 15:50:25;;;;;;;;;;;;;;;;;;4612272;28;33056;-74
2022/04/02 15:52:52;;;;;;;;;;;;;;;;;;4618254;28;31074;-71
2022/04/02 15:55:21;;;;;;;;;;;;;;;;;;4617959;28;27995;-74
2022/04/02 15:57:48;;;;;;;;;;;;;;;;;;4618956;28;33133;-72
2022/04/02 16:00:18;;;;;;;;;;;;;;;;;;4619527;28;25085;-74
2022/04/02 16:02:50;;;;;;;;;;;;;;;;;;4622511;28;31083;-72
2022/04/02 16:05:22;;;;;;;;;;;;;;;;;;4622547;28;30074;-74
2022/04/02 16:07:55;;;;;;;;;;;;;;;;;;4620552;28;26090;-70
2022/04/02 16:10:22;;;;;;;;;;;;;;;;;;4621892;28;27051;-72
2022/04/02 16:12:50;;;;;;;;;;;;;;;;;;4621619;28;28093;-73
2022/04/02 16:15:18;;;;;;;;;;;;;;;;;;4621057;28;32054;-72
2022/04/02 16:17:45;;;;;;;;;;;;;;;;;;4619256;28;31082;-75
2022/04/02 16:20:14;;;;;;;;;;;;;;;;;;4620887;28;32046;-72
2022/04/02 16:22:42;;;;;;;;;;;;;;;;;;4619727;28;26073;-74
2022/04/02 16:25:11;;;;;;;;;;;;;;;;;;4619288;28;30125;-75
2022/04/02 16:27:42;;;;;;;;;;;;;;;;;;4615166;28;27146;-72
2022/04/02 16:30:11;;;;;;;;;;;;;;;;;;4615848;28;27098;-73
2022/04/02 16:32:38;;;;;;;;;;;;;;;;;;4593178;28;26050;-73
2022/04/02 16:35:06;;;;;;;;;;;;;;;;;;4559732;28;30118;-69
2022/04/02 16:37:33;;;;;;;;;;;;;;;;;;4615662;28;32020;-71
2022/04/02 16:40:01;;;;;;;;;;;;;;;;;;4617835;28;30103;-69
2022/04/02 16:42:28;;;;;;;;;;;;;;;;;;4619741;28;29076;-72
2022/04/02 16:44:56;;;;;;;;;;;;;;;;;;4626032;28;30082;-72
2022/04/02 16:47:24;;;;;;;;;;;;;;;;;;4622077;28;27145;-71
2022/04/02 16:49:52;;;;;;;;;;;;;;;;;;4621201;28;25078;-72
2022/04/02 16:52:19;;;;;;;;;;;;;;;;;;4622783;28;31075;-72
2022/04/02 16:54:48;;;;;;;;;;;;;;;;;;4621318;28;26075;-73
2022/04/02 16:57:15;;;;;;;;;;;;;;;;;;4624218;28;32098;-72
2022/04/02 16:59:43;;;;;;;;;;;;;;;;;;4580033;28;20741;-69
2022/04/02 17:02:10;;;;;;;;;;;;;;;;;;4592057;28;32075;-71
2022/04/02 17:04:38;;;;;;;;;;;;;;;;;;4621988;28;28070;-71
2022/04/02 17:07:14;;;;;;;;;;;;;;;;;;4480043;28;27071;-69
2022/04/02 17:09:43;;;;;;;;;;;;;;;;;;4333735;28;22310;-70